Time;durP1;ratioP1;P1;durP2;ratioP2;P2;SDS_P1;SDS_P2;PMS_P1;PMS_P2;Temp;Humidity;BMP_temperature;BMP_pressure;BME280_temperature;BME280_humidity;BME280_pressure;Samples;Min_cycle;Max_cycle;Signal;HPM_P1;HPM_P2
2023/02/23 00:01:32;;;;;;;15.43;9.02;;;-0.70;99.90;;;;;;5073291;28;20017;-79
2023/02/23 00:03:58;;;;;;;18.23;9.88;;;-0.70;99.90;;;;;;5072604;28;20031;-80
2023/02/23 00:06:28;;;;;;;13.38;8.90;;;-0.70;99.90;;;;;;5072669;28;20021;-82
2023/02/23 00:08:54;;;;;;;17.23;10.00;;;-0.70;99.90;;;;;;5072271;28;20025;-81
2023/02/23 00:11:20;;;;;;;17.50;9.30;;;-0.70;99.90;;;;;;5072359;28;20032;-82
2023/02/23 00:13:48;;;;;;;14.23;9.10;;;-0.70;99.90;;;;;;5071119;28;20028;-82
2023/02/23 00:16:22;;;;;;;14.73;8.82;;;-0.70;99.90;;;;;;5071985;28;20052;-81
2023/02/23 00:18:54;;;;;;;14.95;9.43;;;-0.80;99.90;;;;;;5072032;28;20086;-82
2023/02/23 00:21:23;;;;;;;14.82;9.18;;;-0.70;99.90;;;;;;5074668;28;20389;-81
2023/02/23 00:23:57;;;;;;;17.92;9.57;;;-0.80;99.90;;;;;;5075767;28;20111;-81
2023/02/23 00:26:29;;;;;;;13.10;8.57;;;-0.80;99.90;;;;;;5075097;28;20020;-81
2023/02/23 00:28:55;;;;;;;17.25;9.50;;;-0.80;99.90;;;;;;5075238;28;20358;-79
2023/02/23 00:31:24;;;;;;;16.23;8.98;;;-0.80;99.90;;;;;;5076098;28;20071;-79
2023/02/23 00:33:52;;;;;;;14.48;9.30;;;-0.80;99.90;;;;;;5075818;28;20029;-79
2023/02/23 00:36:20;;;;;;;16.55;8.65;;;-0.80;99.90;;;;;;5074707;28;20036;-79
2023/02/23 00:38:45;;;;;;;20.58;9.25;;;-0.80;99.90;;;;;;5074550;28;20086;-79
2023/02/23 00:41:18;;;;;;;12.23;8.88;;;-0.80;99.90;;;;;;5074516;28;20465;-79
2023/02/23 00:43:47;;;;;;;11.88;7.68;;;-0.80;99.90;;;;;;5075699;28;20046;-80
2023/02/23 00:46:22;;;;;;;17.45;9.23;;;-0.80;99.90;;;;;;5075741;28;20052;-79
2023/02/23 00:48:49;;;;;;;12.88;7.85;;;-0.80;99.90;;;;;;5074427;28;20020;-80
2023/02/23 00:51:16;;;;;;;13.75;8.82;;;-0.80;99.90;;;;;;5074565;28;20436;-82
2023/02/23 00:53:43;;;;;;;16.63;8.88;;;-0.80;99.90;;;;;;5074206;28;20502;-79
2023/02/23 00:56:12;;;;;;;15.57;8.98;;;-0.80;99.90;;;;;;5074180;28;20013;-80
2023/02/23 00:58:38;;;;;;;13.63;8.48;;;-0.80;99.90;;;;;;5075285;28;20081;-80
2023/02/23 01:01:09;;;;;;;18.00;9.85;;;-0.80;99.90;;;;;;5075147;28;20073;-79
2023/02/23 01:03:36;;;;;;;15.50;8.48;;;-0.80;99.90;;;;;;5073907;28;20044;-79
2023/02/23 01:06:08;;;;;;;21.83;9.00;;;-0.90;99.90;;;;;;5075342;28;20069;-80
2023/02/23 01:08:35;;;;;;;15.45;8.75;;;-0.90;99.90;;;;;;5075116;28;20385;-80
2023/02/23 01:11:13;;;;;;;13.10;7.65;;;-0.90;99.90;;;;;;5074715;28;20098;-83
2023/02/23 01:13:41;;;;;;;15.82;8.63;;;-0.80;99.90;;;;;;5075118;28;20028;-83
2023/02/23 01:16:10;;;;;;;15.60;10.73;;;-0.90;99.90;;;;;;5075177;28;20063;-81
2023/02/23 01:18:37;;;;;;;13.80;8.60;;;-0.90;99.90;;;;;;5074831;28;20359;-83
2023/02/23 01:21:06;;;;;;;16.88;8.40;;;-0.90;99.90;;;;;;5074779;28;20394;-80
2023/02/23 01:23:32;;;;;;;14.00;8.55;;;-0.90;99.90;;;;;;5073629;28;20013;-81
2023/02/23 01:25:58;;;;;;;13.02;8.95;;;-0.90;99.90;;;;;;5074618;28;20050;-80
2023/02/23 01:28:23;;;;;;;14.73;8.02;;;-0.90;99.90;;;;;;5075319;28;20027;-81
2023/02/23 01:30:49;;;;;;;14.30;8.35;;;-0.80;99.90;;;;;;5073326;28;20367;-81
2023/02/23 01:33:15;;;;;;;15.00;8.82;;;-0.80;99.90;;;;;;5073440;28;20041;-81
2023/02/23 01:35:42;;;;;;;16.95;8.52;;;-0.80;99.90;;;;;;5074440;28;20017;-82
2023/02/23 01:38:09;;;;;;;14.02;8.70;;;-0.80;99.90;;;;;;5074730;28;20047;-81
2023/02/23 01:40:37;;;;;;;14.98;8.98;;;-0.90;99.90;;;;;;5074423;28;20025;-80
2023/02/23 01:43:17;;;;;;;13.00;7.70;;;-0.90;99.90;;;;;;5073042;28;20048;-81
2023/02/23 01:45:44;;;;;;;13.35;8.63;;;-0.90;99.90;;;;;;5074346;28;20139;-81
2023/02/23 01:48:16;;;;;;;14.02;9.40;;;-0.90;99.90;;;;;;5074402;28;20578;-81
2023/02/23 01:50:51;;;;;;;14.05;8.45;;;-0.90;99.90;;;;;;5074369;28;20063;-80
2023/02/23 01:53:20;;;;;;;18.75;9.18;;;-1.00;99.90;;;;;;5072930;28;20036;-81
2023/02/23 01:55:48;;;;;;;16.17;9.32;;;-1.00;99.90;;;;;;5074306;28;20031;-81
2023/02/23 01:58:18;;;;;;;15.82;9.48;;;-1.00;99.90;;;;;;5073979;28;20110;-81
2023/02/23 02:00:48;;;;;;;19.35;10.68;;;-1.00;99.90;;;;;;5074216;28;20111;-80
2023/02/23 02:03:26;;;;;;;15.48;9.40;;;-1.00;99.90;;;;;;5073226;28;20024;-81
2023/02/23 02:05:53;;;;;;;16.85;9.95;;;-1.00;99.90;;;;;;5072659;28;20024;-81
2023/02/23 02:08:22;;;;;;;15.90;8.77;;;-1.00;99.90;;;;;;5074001;28;20355;-81
2023/02/23 02:10:54;;;;;;;12.93;7.75;;;-1.00;99.90;;;;;;5073919;28;20029;-81
2023/02/23 02:13:23;;;;;;;13.77;8.90;;;-1.00;99.90;;;;;;5072472;28;20028;-80
2023/02/23 02:16:13;;;;;;;15.60;8.55;;;-1.00;99.90;;;;;;5074020;28;20020;-81
2023/02/23 02:19:04;;;;;;;16.23;9.05;;;-1.00;99.90;;;;;;5072725;28;20024;-81
2023/02/23 02:21:50;;;;;;;15.50;9.10;;;-1.00;99.90;;;;;;5073900;28;20036;-80
2023/02/23 02:24:22;;;;;;;16.67;9.35;;;-1.10;99.90;;;;;;5072442;28;20492;-81
2023/02/23 02:27:11;;;;;;;15.80;8.48;;;-1.10;99.90;;;;;;5073711;28;20060;-82
2023/02/23 02:30:09;;;;;;;14.50;8.45;;;-1.10;99.90;;;;;;5072612;28;20470;-80
2023/02/23 02:32:59;;;;;;;17.65;10.18;;;-1.10;99.90;;;;;;5073589;28;20040;-79
2023/02/23 02:35:47;;;;;;;20.05;9.80;;;-1.10;99.90;;;;;;5073747;28;20029;-79
2023/02/23 02:38:15;;;;;;;18.23;9.68;;;-1.10;99.90;;;;;;5073651;28;20416;-79
2023/02/23 02:40:52;;;;;;;16.73;10.32;;;-1.20;99.90;;;;;;5073344;28;20024;-78
2023/02/23 02:43:45;;;;;;;16.23;9.50;;;-1.20;99.90;;;;;;5073247;28;20024;-78
2023/02/23 02:46:43;;;;;;;18.40;10.23;;;-1.20;99.90;;;;;;5073402;28;20052;-78
2023/02/23 02:49:27;;;;;;;16.15;9.07;;;-1.20;99.90;;;;;;5056713;28;20036;-79
2023/02/23 02:52:10;;;;;;;18.70;9.27;;;-1.20;99.90;;;;;;5073329;28;20021;-79
2023/02/23 02:54:47;;;;;;;13.45;9.15;;;-1.20;99.90;;;;;;5072817;28;20145;-79
2023/02/23 02:57:14;;;;;;;18.88;9.15;;;-1.20;99.90;;;;;;5073537;28;20107;-79
2023/02/23 04:18:30;;;;;;;16.30;9.68;;;-1.50;99.90;;;;;;5036576;28;20055;-80
2023/02/23 04:20:56;;;;;;;18.20;9.75;;;-1.50;99.90;;;;;;5051763;28;20029;-78
2023/02/23 04:23:23;;;;;;;15.73;9.40;;;-1.50;99.90;;;;;;5051485;28;20391;-80
2023/02/23 04:25:50;;;;;;;15.40;9.63;;;-1.50;99.90;;;;;;5051612;28;20024;-79
2023/02/23 04:28:16;;;;;;;16.50;9.77;;;-1.50;99.90;;;;;;5036259;28;20479;-80
2023/02/23 04:30:42;;;;;;;22.02;11.25;;;-1.50;99.90;;;;;;5036086;28;20017;-79
2023/02/23 04:33:08;;;;;;;21.05;9.85;;;-1.50;99.90;;;;;;5051410;28;20082;-79
2023/02/23 04:35:34;;;;;;;19.13;10.57;;;-1.50;99.90;;;;;;5036309;28;20033;-78
2023/02/23 04:38:00;;;;;;;16.40;10.13;;;-1.50;99.90;;;;;;5051247;28;20480;-80
2023/02/23 04:40:27;;;;;;;16.10;10.75;;;-1.50;99.90;;;;;;5051659;28;20113;-80
2023/02/23 04:42:53;;;;;;;17.23;9.70;;;-1.50;99.90;;;;;;5051545;28;20032;-79
2023/02/23 04:45:19;;;;;;;21.20;10.10;;;-1.50;99.90;;;;;;5051084;28;20064;-78
2023/02/23 04:47:45;;;;;;;17.15;9.77;;;-1.50;99.90;;;;;;5035796;28;20029;-78
2023/02/23 04:50:11;;;;;;;20.48;10.40;;;-1.60;99.90;;;;;;5051054;28;20025;-78
2023/02/23 04:52:37;;;;;;;16.63;9.57;;;-1.50;99.90;;;;;;5051244;28;20033;-78
2023/02/23 04:55:05;;;;;;;19.60;11.68;;;-1.60;99.90;;;;;;5050997;28;20021;-79
2023/02/23 04:57:32;;;;;;;15.27;9.80;;;-1.60;99.90;;;;;;5035864;28;20548;-80
2023/02/23 04:59:58;;;;;;;16.83;9.23;;;-1.60;99.90;;;;;;5050846;28;20513;-80
2023/02/23 05:02:24;;;;;;;19.42;11.98;;;-1.60;99.90;;;;;;5051093;28;20017;-80
2023/02/23 05:04:50;;;;;;;16.92;9.80;;;-1.60;99.90;;;;;;5035640;28;20522;-80
2023/02/23 05:07:15;;;;;;;14.02;9.43;;;-1.60;99.90;;;;;;5050828;28;20033;-80
2023/02/23 05:09:41;;;;;;;18.25;10.13;;;-1.60;99.90;;;;;;5040147;28;20059;-81
2023/02/23 05:12:07;;;;;;;17.25;10.57;;;-1.60;99.90;;;;;;5073958;28;20029;-79
2023/02/23 05:14:32;;;;;;;21.55;10.73;;;-1.60;99.90;;;;;;5075061;28;20394;-80
2023/02/23 05:16:58;;;;;;;21.80;11.05;;;-1.60;99.90;;;;;;5075221;28;20074;-79
2023/02/23 05:19:24;;;;;;;21.65;11.18;;;-1.60;99.90;;;;;;5075633;28;20024;-79
2023/02/23 05:21:49;;;;;;;20.00;11.55;;;-1.60;99.90;;;;;;5074549;28;20024;-78
2023/02/23 05:24:16;;;;;;;22.20;11.38;;;-1.60;99.90;;;;;;5073559;28;20025;-78
2023/02/23 05:26:42;;;;;;;16.90;9.50;;;-1.60;99.90;;;;;;5058868;28;20043;-77
2023/02/23 05:29:08;;;;;;;19.40;11.30;;;-1.60;99.90;;;;;;5053746;28;20033;-78
2023/02/23 05:31:33;;;;;;;21.52;11.50;;;-1.60;99.90;;;;;;5054842;28;20027;-78
2023/02/23 05:33:59;;;;;;;21.98;11.68;;;-1.60;99.90;;;;;;5051511;28;20044;-78
2023/02/23 05:36:25;;;;;;;22.70;11.15;;;-1.70;99.90;;;;;;5051470;28;20033;-81
2023/02/23 05:38:50;;;;;;;19.77;10.95;;;-1.60;99.90;;;;;;5050277;28;20048;-81
2023/02/23 05:41:21;;;;;;;22.00;11.32;;;-1.70;99.90;;;;;;5050295;28;20036;-81
2023/02/23 05:43:49;;;;;;;23.35;12.00;;;-1.70;99.90;;;;;;5049938;28;20028;-79
2023/02/23 05:46:16;;;;;;;23.90;13.23;;;-1.70;99.90;;;;;;5050796;28;20041;-79
2023/02/23 05:48:42;;;;;;;26.05;12.95;;;-1.70;99.90;;;;;;5051442;28;20898;-78
2023/02/23 05:51:11;;;;;;;19.83;11.25;;;-1.70;99.90;;;;;;5054095;28;20024;-79
2023/02/23 05:53:37;;;;;;;21.40;11.05;;;-1.70;99.90;;;;;;5072135;28;20036;-78
2023/02/23 05:56:04;;;;;;;19.30;11.73;;;-1.70;99.90;;;;;;5072322;28;20385;-78
2023/02/23 05:58:29;;;;;;;23.17;12.10;;;-1.70;99.90;;;;;;5071340;28;20544;-78
2023/02/23 06:00:55;;;;;;;21.05;12.40;;;-1.70;99.90;;;;;;5070876;28;20029;-78
2023/02/23 06:03:21;;;;;;;25.10;12.55;;;-1.70;99.90;;;;;;5073724;28;20021;-80
2023/02/23 06:05:55;;;;;;;21.90;11.38;;;-1.70;99.90;;;;;;5074114;28;20109;-81
2023/02/23 06:08:22;;;;;;;20.35;10.68;;;-1.70;99.90;;;;;;5074019;28;20035;-80
2023/02/23 06:10:48;;;;;;;19.05;11.52;;;-1.70;99.90;;;;;;5074255;28;20036;-80
2023/02/23 06:13:14;;;;;;;23.85;12.50;;;-1.60;99.90;;;;;;5073983;28;20123;-80
2023/02/23 06:15:40;;;;;;;25.77;11.85;;;-1.60;99.90;;;;;;5074083;28;20040;-80
2023/02/23 06:18:07;;;;;;;22.65;12.13;;;-1.60;99.90;;;;;;5073782;28;20056;-80
2023/02/23 06:20:34;;;;;;;19.58;10.05;;;-1.60;99.90;;;;;;5073897;28;20124;-80
2023/02/23 06:22:59;;;;;;;20.67;11.85;;;-1.50;99.90;;;;;;5073868;28;20024;-80
2023/02/23 06:25:25;;;;;;;21.42;12.70;;;-1.50;99.90;;;;;;5072852;28;20024;-80
2023/02/23 06:27:50;;;;;;;24.30;13.10;;;-1.50;99.90;;;;;;5072437;28;20017;-80
2023/02/23 06:30:16;;;;;;;18.60;11.35;;;-1.50;99.90;;;;;;5072677;28;20429;-81
2023/02/23 06:32:42;;;;;;;20.85;12.55;;;-1.50;99.90;;;;;;5072318;28;20390;-81
2023/02/23 06:35:08;;;;;;;26.83;12.32;;;-1.40;99.90;;;;;;5072483;28;20029;-80
2023/02/23 06:37:35;;;;;;;21.73;12.07;;;-1.40;99.90;;;;;;5073610;28;20025;-80
2023/02/23 06:40:01;;;;;;;25.65;12.88;;;-1.40;99.90;;;;;;5073392;28;20469;-81
2023/02/23 06:42:27;;;;;;;26.88;13.93;;;-1.40;99.90;;;;;;5063086;28;20121;-81
2023/02/23 06:44:53;;;;;;;26.67;14.63;;;-1.30;99.90;;;;;;5053434;28;20025;-81
2023/02/23 06:47:18;;;;;;;28.10;13.95;;;-1.30;99.90;;;;;;5059455;28;20017;-81
2023/02/23 06:49:44;;;;;;;28.83;14.82;;;-1.20;99.90;;;;;;5071573;28;20021;-81
2023/02/23 06:52:12;;;;;;;29.05;13.50;;;-1.20;99.90;;;;;;5071010;28;20029;-80
2023/02/23 06:54:38;;;;;;;25.90;14.15;;;-1.10;99.90;;;;;;5071444;28;20046;-81
2023/02/23 06:57:05;;;;;;;26.33;13.80;;;-1.10;99.90;;;;;;5070897;28;20024;-81
2023/02/23 06:59:31;;;;;;;24.60;12.48;;;-1.00;99.90;;;;;;5072438;28;20024;-81
2023/02/23 07:01:57;;;;;;;30.40;14.27;;;-1.00;99.90;;;;;;5073175;28;20474;-81
2023/02/23 07:04:22;;;;;;;28.48;15.02;;;-1.00;99.90;;;;;;5072982;28;20091;-81
2023/02/23 07:06:48;;;;;;;24.13;13.68;;;-0.90;99.90;;;;;;5072915;28;20571;-81
2023/02/23 07:09:14;;;;;;;25.15;14.82;;;-0.80;99.90;;;;;;5072990;28;20020;-81
2023/02/23 07:11:40;;;;;;;25.30;13.27;;;-0.80;99.90;;;;;;5072900;28;20021;-81
2023/02/23 07:14:09;;;;;;;23.05;12.40;;;-0.70;99.90;;;;;;5072062;28;20029;-81
2023/02/23 07:16:35;;;;;;;21.55;13.55;;;-0.70;99.90;;;;;;5073348;28;20070;-81
2023/02/23 07:19:02;;;;;;;23.63;13.52;;;-0.60;99.90;;;;;;5073410;28;20135;-81
2023/02/23 07:21:28;;;;;;;22.27;12.88;;;-0.60;99.90;;;;;;5072137;28;20083;-80
2023/02/23 07:23:54;;;;;;;27.35;14.63;;;-0.50;99.90;;;;;;5071593;28;20052;-81
2023/02/23 07:26:19;;;;;;;24.35;13.57;;;-0.50;99.90;;;;;;5071954;28;20031;-81
2023/02/23 07:28:45;;;;;;;26.13;13.95;;;-0.40;99.90;;;;;;5073300;28;20097;-81
2023/02/23 07:31:11;;;;;;;24.13;13.07;;;-0.40;99.90;;;;;;5074293;28;20027;-81
2023/02/23 07:33:39;;;;;;;21.00;12.50;;;-0.30;99.90;;;;;;5075940;28;20482;-81
2023/02/23 07:36:05;;;;;;;24.80;13.57;;;-0.30;99.90;;;;;;5075123;28;20027;-81
2023/02/23 07:38:31;;;;;;;25.65;14.38;;;-0.20;99.90;;;;;;5073866;28;20409;-81
2023/02/23 07:40:56;;;;;;;22.88;12.85;;;-0.20;99.90;;;;;;5073914;28;20025;-81
2023/02/23 07:43:23;;;;;;;23.00;12.27;;;-0.10;99.90;;;;;;5073948;28;20070;-80
2023/02/23 07:45:52;;;;;;;24.08;13.02;;;0.00;99.90;;;;;;5074499;28;20067;-81
2023/02/23 07:48:18;;;;;;;24.10;13.48;;;0.00;99.90;;;;;;5075128;28;20089;-81
2023/02/23 07:50:44;;;;;;;22.83;12.32;;;0.10;99.90;;;;;;5076659;28;20024;-81
2023/02/23 07:53:10;;;;;;;24.52;12.30;;;0.10;99.90;;;;;;5059205;28;20569;-81
2023/02/23 07:55:37;;;;;;;23.10;13.23;;;0.20;99.90;;;;;;5076258;28;20052;-81
2023/02/23 07:58:04;;;;;;;26.05;13.65;;;0.30;99.90;;;;;;5076405;28;20021;-81
2023/02/23 08:00:30;;;;;;;31.20;14.10;;;0.30;99.90;;;;;;5076316;28;20107;-81
2023/02/23 08:02:56;;;;;;;24.23;13.20;;;0.40;99.90;;;;;;5075515;28;20447;-81
2023/02/23 08:05:21;;;;;;;22.58;12.50;;;0.50;99.90;;;;;;5076324;28;20023;-82
2023/02/23 08:07:47;;;;;;;23.58;12.80;;;0.60;99.90;;;;;;5076485;28;20028;-81
2023/02/23 08:10:13;;;;;;;26.67;14.18;;;0.60;99.90;;;;;;5076620;28;20029;-81
2023/02/23 08:12:38;;;;;;;21.30;13.45;;;0.70;99.90;;;;;;5075989;28;20024;-81
2023/02/23 08:15:07;;;;;;;22.20;12.55;;;0.80;99.90;;;;;;5076242;28;20081;-81
2023/02/23 08:17:36;;;;;;;22.48;12.55;;;0.80;99.90;;;;;;5075136;28;20039;-81
2023/02/23 08:20:03;;;;;;;27.13;12.90;;;1.00;99.90;;;;;;5074974;28;20024;-81
2023/02/23 08:22:29;;;;;;;23.98;13.52;;;1.10;99.90;;;;;;5075940;28;20367;-81
2023/02/23 08:24:55;;;;;;;22.92;13.15;;;1.10;99.90;;;;;;5075944;28;20032;-81
2023/02/23 08:27:20;;;;;;;23.83;13.02;;;1.30;99.90;;;;;;5075221;28;20025;-81
2023/02/23 08:29:46;;;;;;;22.45;14.52;;;1.40;99.90;;;;;;5074559;28;20446;-82
2023/02/23 08:32:12;;;;;;;25.05;11.70;;;1.40;99.90;;;;;;5075614;28;20111;-82
2023/02/23 08:34:42;;;;;;;21.10;12.10;;;1.40;99.90;;;;;;5075810;28;20037;-82
2023/02/23 08:37:07;;;;;;;26.75;12.98;;;1.50;99.90;;;;;;5075946;28;20425;-82
2023/02/23 08:39:33;;;;;;;23.25;12.88;;;1.60;99.90;;;;;;5075561;28;20063;-82
2023/02/23 08:41:59;;;;;;;24.20;12.65;;;1.70;99.90;;;;;;5075150;28;20461;-82
2023/02/23 08:44:25;;;;;;;23.20;12.68;;;1.80;99.90;;;;;;5075562;28;20025;-81
2023/02/23 08:46:52;;;;;;;23.80;13.90;;;1.90;99.90;;;;;;5075154;28;20398;-82
2023/02/23 08:49:18;;;;;;;28.02;14.60;;;1.90;99.90;;;;;;5075711;28;20089;-81
2023/02/23 08:51:45;;;;;;;23.17;13.93;;;2.00;99.90;;;;;;5074079;28;20021;-81
2023/02/23 08:54:13;;;;;;;28.98;14.10;;;2.00;99.90;;;;;;5074575;28;20127;-81
2023/02/23 08:56:40;;;;;;;22.98;13.98;;;2.10;99.90;;;;;;5074285;28;20017;-81
2023/02/23 08:59:07;;;;;;;27.17;14.48;;;2.20;99.90;;;;;;5074139;28;20028;-82
2023/02/23 09:01:32;;;;;;;26.92;12.85;;;2.30;99.90;;;;;;5075094;28;20478;-81
2023/02/23 09:03:59;;;;;;;29.15;14.07;;;2.40;99.90;;;;;;5075209;28;20031;-81
2023/02/23 09:06:25;;;;;;;26.05;13.25;;;2.60;99.90;;;;;;5075055;28;20020;-81
2023/02/23 09:08:54;;;;;;;19.02;12.38;;;2.60;99.90;;;;;;5075449;28;20016;-81
2023/02/23 09:11:20;;;;;;;24.05;13.50;;;2.60;99.90;;;;;;5075225;28;20035;-81
2023/02/23 09:13:46;;;;;;;36.85;14.68;;;2.80;99.90;;;;;;5074664;28;20044;-81
2023/02/23 09:16:12;;;;;;;28.85;14.13;;;2.90;99.90;;;;;;5073424;28;20024;-81
2023/02/23 09:18:38;;;;;;;24.33;12.73;;;3.00;99.90;;;;;;5075036;28;20032;-81
2023/02/23 09:21:07;;;;;;;26.63;13.18;;;3.00;99.30;;;;;;5074838;28;20098;-81
2023/02/23 09:23:34;;;;;;;27.45;14.45;;;3.00;99.30;;;;;;5074498;28;20090;-81
2023/02/23 09:26:07;;;;;;;29.25;15.05;;;3.00;99.30;;;;;;5073494;28;20026;-81
2023/02/23 09:28:34;;;;;;;23.20;13.50;;;3.20;99.90;;;;;;5074660;28;20025;-81
2023/02/23 09:31:12;;;;;;;24.98;13.07;;;3.20;98.70;;;;;;5075133;28;20501;-81
2023/02/23 09:33:38;;;;;;;24.90;13.82;;;3.30;98.60;;;;;;5073499;28;20064;-81
2023/02/23 09:36:15;;;;;;;30.33;14.13;;;3.30;96.40;;;;;;5073678;28;20021;-81
2023/02/23 09:38:42;;;;;;;30.17;14.82;;;3.30;96.10;;;;;;5073645;28;20020;-81
2023/02/23 09:41:35;;;;;;;25.95;13.73;;;3.40;97.80;;;;;;5073630;28;20028;-81
2023/02/23 09:44:32;;;;;;;26.92;14.35;;;3.40;96.80;;;;;;5073210;28;20516;-82
2023/02/23 09:47:10;;;;;;;24.05;14.32;;;3.50;97.80;;;;;;5071630;28;20048;-81
2023/02/23 09:49:39;;;;;;;28.08;14.68;;;3.60;97.70;;;;;;5074543;28;20381;-81
2023/02/23 09:52:15;;;;;;;32.65;14.27;;;3.70;94.80;;;;;;5073341;28;20111;-81
2023/02/23 09:54:42;;;;;;;25.85;13.70;;;3.70;93.40;;;;;;5073870;28;20086;-81
2023/02/23 09:57:14;;;;;;;32.03;14.15;;;3.80;95.30;;;;;;5074093;28;20111;-82
2023/02/23 09:59:39;;;;;;;22.00;14.40;;;3.80;92.30;;;;;;5073165;28;20115;-81
2023/02/23 10:02:05;;;;;;;28.13;14.30;;;3.90;94.80;;;;;;5074432;28;20091;-81
2023/02/23 10:04:47;;;;;;;27.45;15.32;;;4.00;92.70;;;;;;5072978;28;20078;-82
2023/02/23 10:07:15;;;;;;;24.67;14.52;;;4.10;93.10;;;;;;5072835;28;20031;-81
2023/02/23 10:09:46;;;;;;;27.45;14.75;;;4.10;91.90;;;;;;5074054;28;20066;-81
2023/02/23 10:12:42;;;;;;;28.75;15.43;;;4.20;91.40;;;;;;5073771;28;20017;-81
2023/02/23 10:15:34;;;;;;;25.55;14.65;;;4.30;91.20;;;;;;5074413;28;20090;-81
2023/02/23 10:18:16;;;;;;;26.98;15.63;;;4.30;90.50;;;;;;5073491;28;20020;-82
2023/02/23 10:20:45;;;;;;;24.25;13.55;;;4.40;90.50;;;;;;5073465;28;20111;-81
2023/02/23 10:23:15;;;;;;;31.17;15.80;;;4.60;91.40;;;;;;5072531;28;20448;-81
2023/02/23 10:25:45;;;;;;;27.45;15.10;;;4.70;90.70;;;;;;5073440;28;20025;-82
2023/02/23 10:28:16;;;;;;;25.85;14.23;;;4.80;88.40;;;;;;5073125;28;20032;-81
2023/02/23 10:30:42;;;;;;;27.80;15.23;;;4.90;87.40;;;;;;5073669;28;20032;-81
2023/02/23 10:33:25;;;;;;;27.48;15.75;;;4.90;87.40;;;;;;5073448;28;20398;-82
2023/02/23 10:35:54;;;;;;;;;;;5.00;87.60;;;;;;5074003;28;20064;-82
2023/02/23 10:38:19;;;;;;;30.48;15.73;;;5.20;87.40;;;;;;5073604;28;19994;-83
2023/02/23 10:40:49;;;;;;;25.33;12.90;;;5.20;85.70;;;;;;5073903;28;20060;-82
2023/02/23 10:43:15;;;;;;;28.92;14.55;;;5.40;85.20;;;;;;5072191;28;20478;-83
2023/02/23 10:45:51;;;;;;;26.90;14.27;;;5.50;82.80;;;;;;5073292;28;20052;-83
2023/02/23 10:48:20;;;;;;;30.30;15.43;;;5.60;82.40;;;;;;5073568;28;20035;-83
2023/02/23 10:50:48;;;;;;;24.15;13.65;;;5.70;82.80;;;;;;5073516;28;20020;-80
2023/02/23 10:53:20;;;;;;;48.95;22.23;;;5.80;81.40;;;;;;5073240;28;20089;-80
2023/02/23 10:55:58;;;;;;;25.30;14.88;;;5.70;80.10;;;;;;5073196;28;20466;-80
2023/02/23 10:58:24;;;;;;;23.92;12.95;;;5.80;80.40;;;;;;5072067;28;20021;-80
2023/02/23 11:00:53;;;;;;;22.40;12.82;;;5.70;79.00;;;;;;5073257;28;20020;-80
2023/02/23 11:03:34;;;;;;;22.50;13.07;;;5.80;78.90;;;;;;5071613;28;20382;-80
2023/02/23 11:06:00;;;;;;;23.15;12.25;;;5.80;79.10;;;;;;5073236;28;20016;-80
2023/02/23 11:08:37;;;;;;;24.38;13.13;;;5.80;78.60;;;;;;5073507;28;20024;-81
2023/02/23 11:11:19;;;;;;;29.80;14.50;;;5.80;77.80;;;;;;5073430;28;20481;-80
2023/02/23 11:13:47;;;;;;;22.85;13.07;;;5.90;79.10;;;;;;5071824;28;20473;-81
2023/02/23 11:16:21;;;;;;;22.80;13.40;;;6.00;79.30;;;;;;5073503;28;20056;-80
2023/02/23 11:19:00;;;;;;;27.63;13.75;;;6.10;78.80;;;;;;5072185;28;20170;-80
2023/02/23 11:21:33;;;;;;;21.27;12.80;;;6.20;77.10;;;;;;5071895;28;20027;-80
2023/02/23 11:24:19;;;;;;;;;;;6.30;78.60;;;;;;5073477;28;20021;-81
2023/02/23 11:26:47;;;;;;;26.58;14.45;;;6.50;78.20;;;;;;5070393;28;19999;-80
2023/02/23 11:29:34;;;;;;;22.55;13.45;;;6.60;78.60;;;;;;5073239;28;20020;-81
2023/02/23 11:32:22;;;;;;;19.88;13.07;;;6.80;76.10;;;;;;5072560;28;20150;-81
2023/02/23 11:35:14;;;;;;;22.52;12.35;;;6.80;76.70;;;;;;5063836;28;20528;-81
2023/02/23 11:37:40;;;;;;;21.75;12.27;;;6.80;75.30;;;;;;5068435;28;20538;-81
2023/02/23 11:40:30;;;;;;;26.60;13.13;;;6.90;76.50;;;;;;5063382;28;20036;-80
2023/02/23 11:43:08;;;;;;;24.15;12.10;;;7.00;75.20;;;;;;5067136;28;20027;-80
2023/02/23 11:45:44;;;;;;;31.13;15.85;;;7.00;75.10;;;;;;5062377;28;20040;-80
2023/02/23 11:48:27;;;;;;;67.97;31.75;;;7.10;75.20;;;;;;5060973;28;20024;-81
2023/02/23 11:50:54;;;;;;;20.42;12.70;;;7.20;76.20;;;;;;5063511;28;20021;-80
2023/02/23 11:53:31;;;;;;;23.90;13.13;;;7.20;74.90;;;;;;5072380;28;20068;-80
2023/02/23 11:56:06;;;;;;;33.30;17.75;;;7.30;75.10;;;;;;5063897;28;20067;-80
2023/02/23 11:58:45;;;;;;;35.33;16.40;;;7.40;76.40;;;;;;5054735;28;20482;-81
2023/02/23 12:01:15;;;;;;;20.38;12.50;;;7.50;76.00;;;;;;5051240;28;20078;-80
2023/02/23 12:03:50;;;;;;;26.67;13.35;;;7.50;75.10;;;;;;5052293;28;20033;-80
2023/02/23 12:06:40;;;;;;;21.70;13.20;;;7.50;74.30;;;;;;5052506;28;20074;-80
2023/02/23 12:09:11;;;;;;;24.85;11.82;;;7.60;75.30;;;;;;5051528;28;20029;-80
2023/02/23 12:11:43;;;;;;;24.37;12.63;;;7.60;75.60;;;;;;5052367;28;20032;-80
2023/02/23 12:14:48;;;;;;;24.73;14.30;;;7.70;76.00;;;;;;5052443;28;20299;-80
2023/02/23 12:17:22;;;;;;;40.28;19.05;;;7.70;75.40;;;;;;5053362;28;20390;-80
2023/02/23 12:19:57;;;;;;;28.45;16.15;;;7.80;75.40;;;;;;5055966;28;20079;-81
2023/02/23 12:22:36;;;;;;;25.58;13.95;;;7.90;75.60;;;;;;5058666;28;20025;-80
2023/02/23 12:25:17;;;;;;;24.65;13.48;;;7.80;74.80;;;;;;5063692;28;20017;-81
2023/02/23 12:27:58;;;;;;;27.77;15.20;;;7.90;75.80;;;;;;5064975;28;20426;-80
2023/02/23 12:30:46;;;;;;;23.13;12.85;;;7.90;76.10;;;;;;5059728;28;20028;-81
2023/02/23 12:33:32;;;;;;;27.08;13.75;;;7.80;75.20;;;;;;5055158;28;20367;-81
2023/02/23 12:36:25;;;;;;;25.85;14.23;;;7.80;76.00;;;;;;5054371;28;20031;-80
2023/02/23 12:39:03;;;;;;;27.07;14.30;;;7.70;76.30;;;;;;5054118;28;20021;-81
2023/02/23 12:41:40;;;;;;;27.38;14.13;;;7.80;76.70;;;;;;5054999;28;20259;-80
2023/02/23 12:44:18;;;;;;;25.38;12.98;;;7.80;77.20;;;;;;5055129;28;20107;-81
2023/02/23 12:46:52;;;;;;;26.73;14.25;;;7.70;76.90;;;;;;5062519;28;20111;-79
2023/02/23 12:49:43;;;;;;;29.38;16.00;;;7.70;77.20;;;;;;5061910;28;20048;-80
2023/02/23 12:52:26;;;;;;;26.63;14.18;;;7.70;77.60;;;;;;5063153;28;20032;-80
2023/02/23 12:54:52;;;;;;;28.95;16.23;;;7.60;78.10;;;;;;5067517;28;20058;-80
2023/02/23 12:58:06;;;;;;;41.45;21.60;;;7.60;78.30;;;;;;5070987;28;20024;-80
2023/02/23 13:00:34;;;;;;;35.75;16.60;;;7.60;79.30;;;;;;5008924;28;20117;-80
2023/02/23 13:03:14;;;;;;;24.33;13.65;;;7.60;79.30;;;;;;5055562;28;20082;-80
2023/02/23 13:06:07;;;;;;;27.77;14.48;;;7.60;79.80;;;;;;5062449;28;20024;-80
2023/02/23 13:09:20;;;;;;;26.35;14.38;;;7.60;79.90;;;;;;5071197;28;20029;-80
2023/02/23 13:12:05;;;;;;;28.67;14.47;;;7.50;79.50;;;;;;5070039;28;20025;-80
2023/02/23 13:14:55;;;;;;;25.27;13.80;;;7.50;80.10;;;;;;5062308;28;20383;-80
2023/02/23 13:17:41;;;;;;;26.10;14.02;;;7.50;80.70;;;;;;5062079;28;20047;-80
2023/02/23 13:20:35;;;;;;;26.10;13.77;;;7.40;81.10;;;;;;5062813;28;20021;-81
2023/02/23 13:23:39;;;;;;;27.98;14.30;;;7.40;81.20;;;;;;5052515;28;20028;-81
2023/02/23 13:26:17;;;;;;;;;;;7.40;81.60;;;;;;5059066;28;20481;-80
2023/02/23 13:28:57;;;;;;;27.08;14.73;;;7.40;81.80;;;;;;5059678;28;19908;-79
2023/02/23 13:31:34;;;;;;;26.08;15.32;;;7.50;83.30;;;;;;5051705;28;20029;-80
2023/02/23 13:34:02;;;;;;;20.80;13.32;;;7.40;82.20;;;;;;5057409;28;20047;-82
2023/02/23 13:36:30;;;;;;;23.88;13.82;;;7.50;82.60;;;;;;5063043;28;20122;-79
2023/02/23 13:39:35;;;;;;;24.17;14.18;;;7.50;83.50;;;;;;5058080;28;20049;-79
2023/02/23 13:42:19;;;;;;;34.38;18.60;;;7.50;83.30;;;;;;5055375;28;20489;-79
2023/02/23 13:44:45;;;;;;;30.33;17.45;;;7.60;83.70;;;;;;5059252;28;20028;-81
2023/02/23 13:47:35;;;;;;;23.30;13.77;;;7.60;83.90;;;;;;5059687;28;20028;-80
2023/02/23 13:50:04;;;;;;;24.83;15.43;;;7.70;82.80;;;;;;5061547;28;20437;-80
2023/02/23 13:52:39;;;;;;;28.30;15.80;;;7.70;82.50;;;;;;5062539;28;20037;-80
2023/02/23 13:55:24;;;;;;;31.00;16.55;;;7.70;83.10;;;;;;5061041;28;20029;-79
2023/02/23 13:58:17;;;;;;;27.85;17.50;;;7.70;82.80;;;;;;5058558;28;20024;-80
2023/02/23 14:00:48;;;;;;;32.15;16.33;;;7.70;82.10;;;;;;5053251;28;20033;-81
2023/02/23 14:03:25;;;;;;;30.20;16.40;;;7.70;83.70;;;;;;5060353;28;20021;-82
2023/02/23 14:05:56;;;;;;;29.75;16.60;;;7.60;83.10;;;;;;5057807;28;20025;-81
2023/02/23 14:08:48;;;;;;;26.67;15.32;;;7.70;83.20;;;;;;5059975;28;20038;-81
2023/02/23 14:11:33;;;;;;;29.70;16.27;;;7.60;83.30;;;;;;5060711;28;20111;-81
2023/02/23 14:14:03;;;;;;;31.60;17.25;;;7.60;84.40;;;;;;5062324;28;20033;-81
2023/02/23 14:16:30;;;;;;;26.45;15.05;;;7.60;84.10;;;;;;5058307;28;20020;-80
2023/02/23 14:19:11;;;;;;;32.78;17.38;;;7.70;84.50;;;;;;5062333;28;20032;-80